sensor_id;sensor_type;location;lat;lon;timestamp;temperature;humidity
60313;DHT22;46158;52.850;6.970;2022-08-01T00:01:52;20.40;78.10
60313;DHT22;46158;52.850;6.970;2022-08-01T00:04:18;20.40;78.10
60313;DHT22;46158;52.850;6.970;2022-08-01T00:06:44;20.40;78.10
60313;DHT22;46158;52.850;6.970;2022-08-01T00:09:09;20.40;78.10
60313;DHT22;46158;52.850;6.970;2022-08-01T00:11:35;20.40;78.10
60313;DHT22;46158;52.850;6.970;2022-08-01T00:14:01;20.40;78.10
60313;DHT22;46158;52.850;6.970;2022-08-01T00:16:26;20.40;78.20
60313;DHT22;46158;52.850;6.970;2022-08-01T00:18:52;20.40;78.10
60313;DHT22;46158;52.850;6.970;2022-08-01T00:21:18;20.40;78.20
60313;DHT22;46158;52.850;6.970;2022-08-01T00:23:43;20.40;78.20
60313;DHT22;46158;52.850;6.970;2022-08-01T00:26:11;20.40;78.20
60313;DHT22;46158;52.850;6.970;2022-08-01T00:28:37;20.40;78.20
60313;DHT22;46158;52.850;6.970;2022-08-01T00:31:03;20.40;78.20
60313;DHT22;46158;52.850;6.970;2022-08-01T00:33:28;20.40;78.30
60313;DHT22;46158;52.850;6.970;2022-08-01T00:35:54;20.40;78.30
60313;DHT22;46158;52.850;6.970;2022-08-01T00:38:20;20.40;78.30
60313;DHT22;46158;52.850;6.970;2022-08-01T00:40:45;20.40;78.30
60313;DHT22;46158;52.850;6.970;2022-08-01T00:43:11;20.40;78.30
60313;DHT22;46158;52.850;6.970;2022-08-01T00:45:37;20.40;78.30
60313;DHT22;46158;52.850;6.970;2022-08-01T00:48:02;20.40;78.30
60313;DHT22;46158;52.850;6.970;2022-08-01T00:50:28;20.40;78.40
60313;DHT22;46158;52.850;6.970;2022-08-01T00:52:55;20.40;78.30
60313;DHT22;46158;52.850;6.970;2022-08-01T00:55:21;20.40;78.30
60313;DHT22;46158;52.850;6.970;2022-08-01T00:57:47;20.30;78.30
60313;DHT22;46158;52.850;6.970;2022-08-01T01:00:14;20.40;78.40
60313;DHT22;46158;52.850;6.970;2022-08-01T01:02:39;20.30;78.30
60313;DHT22;46158;52.850;6.970;2022-08-01T01:05:05;20.40;78.50
60313;DHT22;46158;52.850;6.970;2022-08-01T01:07:46;20.30;78.40
60313;DHT22;46158;52.850;6.970;2022-08-01T01:10:30;20.40;78.40
60313;DHT22;46158;52.850;6.970;2022-08-01T01:13:20;20.30;78.30
60313;DHT22;46158;52.850;6.970;2022-08-01T01:16:00;20.30;78.30
60313;DHT22;46158;52.850;6.970;2022-08-01T01:18:35;20.30;78.40
60313;DHT22;46158;52.850;6.970;2022-08-01T01:24:06;20.30;78.50
60313;DHT22;46158;52.850;6.970;2022-08-01T01:29:42;20.30;78.50
60313;DHT22;46158;52.850;6.970;2022-08-01T01:34:37;20.30;78.50
60313;DHT22;46158;52.850;6.970;2022-08-01T01:37:08;20.30;78.60
60313;DHT22;46158;52.850;6.970;2022-08-01T01:39:36;20.30;78.60
60313;DHT22;46158;52.850;6.970;2022-08-01T01:42:04;20.30;78.50
60313;DHT22;46158;52.850;6.970;2022-08-01T01:44:31;20.30;78.60
60313;DHT22;46158;52.850;6.970;2022-08-01T01:46:59;20.30;78.60
60313;DHT22;46158;52.850;6.970;2022-08-01T01:49:26;20.30;78.60
60313;DHT22;46158;52.850;6.970;2022-08-01T01:51:56;20.30;79.30
60313;DHT22;46158;52.850;6.970;2022-08-01T01:54:23;20.30;78.60
60313;DHT22;46158;52.850;6.970;2022-08-01T01:56:50;20.30;78.70
60313;DHT22;46158;52.850;6.970;2022-08-01T01:59:21;20.30;78.70
60313;DHT22;46158;52.850;6.970;2022-08-01T02:01:51;20.30;78.60
60313;DHT22;46158;52.850;6.970;2022-08-01T02:04:18;20.30;78.70
60313;DHT22;46158;52.850;6.970;2022-08-01T02:06:46;20.30;78.70
60313;DHT22;46158;52.850;6.970;2022-08-01T02:09:15;20.30;78.70
60313;DHT22;46158;52.850;6.970;2022-08-01T02:11:42;20.30;78.70
60313;DHT22;46158;52.850;6.970;2022-08-01T02:14:09;20.30;78.70
60313;DHT22;46158;52.850;6.970;2022-08-01T02:16:37;20.30;78.70
60313;DHT22;46158;52.850;6.970;2022-08-01T02:19:05;20.30;78.70
60313;DHT22;46158;52.850;6.970;2022-08-01T02:21:41;20.30;78.70
60313;DHT22;46158;52.850;6.970;2022-08-01T02:24:17;20.30;78.80
60313;DHT22;46158;52.850;6.970;2022-08-01T02:26:49;20.30;78.70
60313;DHT22;46158;52.850;6.970;2022-08-01T02:29:21;20.30;78.70
60313;DHT22;46158;52.850;6.970;2022-08-01T02:31:48;20.30;78.70
60313;DHT22;46158;52.850;6.970;2022-08-01T02:34:18;20.20;78.70
60313;DHT22;46158;52.850;6.970;2022-08-01T02:36:45;20.30;78.80
60313;DHT22;46158;52.850;6.970;2022-08-01T02:39:14;20.20;78.70
60313;DHT22;46158;52.850;6.970;2022-08-01T02:41:43;20.30;78.80
60313;DHT22;46158;52.850;6.970;2022-08-01T02:44:16;20.20;78.70
60313;DHT22;46158;52.850;6.970;2022-08-01T02:46:50;20.30;78.80
60313;DHT22;46158;52.850;6.970;2022-08-01T02:49:18;20.30;78.80
60313;DHT22;46158;52.850;6.970;2022-08-01T02:51:47;20.20;78.70
60313;DHT22;46158;52.850;6.970;2022-08-01T02:54:15;20.20;78.80
60313;DHT22;46158;52.850;6.970;2022-08-01T02:56:44;20.20;78.80
60313;DHT22;46158;52.850;6.970;2022-08-01T02:59:16;20.20;78.80
60313;DHT22;46158;52.850;6.970;2022-08-01T03:01:44;20.20;78.70
60313;DHT22;46158;52.850;6.970;2022-08-01T03:04:11;20.20;78.80
60313;DHT22;46158;52.850;6.970;2022-08-01T03:06:38;20.20;78.80
60313;DHT22;46158;52.850;6.970;2022-08-01T03:09:05;20.20;78.80
60313;DHT22;46158;52.850;6.970;2022-08-01T03:11:32;20.20;78.80
60313;DHT22;46158;52.850;6.970;2022-08-01T03:14:03;20.20;78.80
60313;DHT22;46158;52.850;6.970;2022-08-01T03:16:31;20.20;78.80
60313;DHT22;46158;52.850;6.970;2022-08-01T03:18:58;20.20;78.80
60313;DHT22;46158;52.850;6.970;2022-08-01T03:21:26;20.20;78.80
60313;DHT22;46158;52.850;6.970;2022-08-01T03:23:53;20.20;78.80
60313;DHT22;46158;52.850;6.970;2022-08-01T03:26:26;20.20;78.80
60313;DHT22;46158;52.850;6.970;2022-08-01T03:28:56;20.20;78.80
60313;DHT22;46158;52.850;6.970;2022-08-01T03:31:22;20.20;78.90
60313;DHT22;46158;52.850;6.970;2022-08-01T03:33:49;20.10;78.70
60313;DHT22;46158;52.850;6.970;2022-08-01T03:36:14;20.20;78.90
60313;DHT22;46158;52.850;6.970;2022-08-01T03:38:42;20.20;78.90
60313;DHT22;46158;52.850;6.970;2022-08-01T03:41:31;20.20;78.90
60313;DHT22;46158;52.850;6.970;2022-08-01T03:44:02;20.20;78.80
60313;DHT22;46158;52.850;6.970;2022-08-01T03:46:50;20.10;78.80
60313;DHT22;46158;52.850;6.970;2022-08-01T03:49:20;20.20;78.80
60313;DHT22;46158;52.850;6.970;2022-08-01T03:51:47;20.10;78.90
60313;DHT22;46158;52.850;6.970;2022-08-01T03:54:16;20.20;78.90
60313;DHT22;46158;52.850;6.970;2022-08-01T03:56:43;20.20;79.00
60313;DHT22;46158;52.850;6.970;2022-08-01T03:59:11;20.20;79.00
60313;DHT22;46158;52.850;6.970;2022-08-01T04:01:37;20.10;78.90
60313;DHT22;46158;52.850;6.970;2022-08-01T04:04:03;20.10;78.90
60313;DHT22;46158;52.850;6.970;2022-08-01T04:06:31;20.10;78.90
60313;DHT22;46158;52.850;6.970;2022-08-01T04:08:57;20.20;79.00
60313;DHT22;46158;52.850;6.970;2022-08-01T04:11:24;20.10;79.00
60313;DHT22;46158;52.850;6.970;2022-08-01T04:13:52;20.10;79.00
60313;DHT22;46158;52.850;6.970;2022-08-01T04:16:19;20.10;79.00
60313;DHT22;46158;52.850;6.970;2022-08-01T04:18:44;20.10;79.00
60313;DHT22;46158;52.850;6.970;2022-08-01T04:21:10;20.10;79.00
60313;DHT22;46158;52.850;6.970;2022-08-01T04:23:39;20.10;79.00
60313;DHT22;46158;52.850;6.970;2022-08-01T04:26:07;20.10;79.40
60313;DHT22;46158;52.850;6.970;2022-08-01T04:28:36;20.10;79.00
60313;DHT22;46158;52.850;6.970;2022-08-01T04:31:03;20.10;79.00
60313;DHT22;46158;52.850;6.970;2022-08-01T04:33:32;20.10;79.00
60313;DHT22;46158;52.850;6.970;2022-08-01T04:36:02;20.10;79.00
60313;DHT22;46158;52.850;6.970;2022-08-01T04:38:30;20.10;79.00
60313;DHT22;46158;52.850;6.970;2022-08-01T04:40:57;20.10;79.00
60313;DHT22;46158;52.850;6.970;2022-08-01T04:43:23;20.10;79.00
60313;DHT22;46158;52.850;6.970;2022-08-01T04:45:50;20.10;79.00
60313;DHT22;46158;52.850;6.970;2022-08-01T04:48:17;20.10;79.00
60313;DHT22;46158;52.850;6.970;2022-08-01T04:50:45;20.10;79.00
60313;DHT22;46158;52.850;6.970;2022-08-01T04:53:15;20.10;79.00
60313;DHT22;46158;52.850;6.970;2022-08-01T04:55:45;20.10;79.00
60313;DHT22;46158;52.850;6.970;2022-08-01T04:58:16;20.10;79.00
60313;DHT22;46158;52.850;6.970;2022-08-01T05:00:41;20.10;79.00
60313;DHT22;46158;52.850;6.970;2022-08-01T05:03:07;20.10;79.00
60313;DHT22;46158;52.850;6.970;2022-08-01T05:05:33;20.10;79.00
60313;DHT22;46158;52.850;6.970;2022-08-01T05:07:59;20.10;79.00
60313;DHT22;46158;52.850;6.970;2022-08-01T05:10:25;20.10;79.00
60313;DHT22;46158;52.850;6.970;2022-08-01T05:12:51;20.10;79.00
60313;DHT22;46158;52.850;6.970;2022-08-01T05:15:17;20.10;79.00
60313;DHT22;46158;52.850;6.970;2022-08-01T05:17:43;20.10;79.00
60313;DHT22;46158;52.850;6.970;2022-08-01T05:20:09;20.10;79.00
60313;DHT22;46158;52.850;6.970;2022-08-01T05:22:35;20.10;79.00
60313;DHT22;46158;52.850;6.970;2022-08-01T05:25:00;20.10;79.00
60313;DHT22;46158;52.850;6.970;2022-08-01T05:27:26;20.10;79.00
60313;DHT22;46158;52.850;6.970;2022-08-01T05:29:52;20.10;79.00
60313;DHT22;46158;52.850;6.970;2022-08-01T05:32:17;20.00;79.00
60313;DHT22;46158;52.850;6.970;2022-08-01T05:34:43;20.00;79.00
60313;DHT22;46158;52.850;6.970;2022-08-01T05:37:09;20.00;79.00
60313;DHT22;46158;52.850;6.970;2022-08-01T05:39:35;20.10;79.10
60313;DHT22;46158;52.850;6.970;2022-08-01T05:42:01;20.00;79.10
60313;DHT22;46158;52.850;6.970;2022-08-01T05:44:27;20.00;79.10
60313;DHT22;46158;52.850;6.970;2022-08-01T05:46:53;20.00;79.10
60313;DHT22;46158;52.850;6.970;2022-08-01T05:49:18;20.00;79.10
60313;DHT22;46158;52.850;6.970;2022-08-01T05:51:44;20.00;79.10
60313;DHT22;46158;52.850;6.970;2022-08-01T05:54:10;20.00;79.10
60313;DHT22;46158;52.850;6.970;2022-08-01T05:56:36;20.00;79.10
60313;DHT22;46158;52.850;6.970;2022-08-01T05:59:02;20.00;79.10
60313;DHT22;46158;52.850;6.970;2022-08-01T06:01:28;20.00;79.10
60313;DHT22;46158;52.850;6.970;2022-08-01T06:03:54;20.00;79.10
60313;DHT22;46158;52.850;6.970;2022-08-01T06:06:21;20.00;79.10
60313;DHT22;46158;52.850;6.970;2022-08-01T06:08:47;20.00;79.10
60313;DHT22;46158;52.850;6.970;2022-08-01T06:11:12;20.00;79.10
60313;DHT22;46158;52.850;6.970;2022-08-01T06:13:38;20.00;79.10
60313;DHT22;46158;52.850;6.970;2022-08-01T06:16:04;20.00;79.10
60313;DHT22;46158;52.850;6.970;2022-08-01T06:18:29;20.00;79.10
60313;DHT22;46158;52.850;6.970;2022-08-01T06:20:55;20.00;79.10
60313;DHT22;46158;52.850;6.970;2022-08-01T06:23:21;20.00;79.10
60313;DHT22;46158;52.850;6.970;2022-08-01T06:25:47;20.00;79.10
60313;DHT22;46158;52.850;6.970;2022-08-01T06:28:13;20.00;79.10
60313;DHT22;46158;52.850;6.970;2022-08-01T06:30:38;20.00;79.00
60313;DHT22;46158;52.850;6.970;2022-08-01T06:33:04;20.00;79.00
60313;DHT22;46158;52.850;6.970;2022-08-01T06:35:30;19.90;79.00
60313;DHT22;46158;52.850;6.970;2022-08-01T06:37:56;20.00;79.00
60313;DHT22;46158;52.850;6.970;2022-08-01T06:40:22;20.00;79.00
60313;DHT22;46158;52.850;6.970;2022-08-01T06:42:48;20.00;79.00
60313;DHT22;46158;52.850;6.970;2022-08-01T06:45:14;20.00;79.70
60313;DHT22;46158;52.850;6.970;2022-08-01T06:47:41;20.00;79.00
60313;DHT22;46158;52.850;6.970;2022-08-01T06:50:08;20.00;79.00
60313;DHT22;46158;52.850;6.970;2022-08-01T06:52:34;20.00;79.00
60313;DHT22;46158;52.850;6.970;2022-08-01T06:55:01;20.00;79.00
60313;DHT22;46158;52.850;6.970;2022-08-01T06:57:26;20.00;79.00
60313;DHT22;46158;52.850;6.970;2022-08-01T06:59:52;20.00;79.00
60313;DHT22;46158;52.850;6.970;2022-08-01T07:02:18;20.00;79.00
60313;DHT22;46158;52.850;6.970;2022-08-01T07:04:44;20.00;79.00
60313;DHT22;46158;52.850;6.970;2022-08-01T07:07:09;20.00;79.00
60313;DHT22;46158;52.850;6.970;2022-08-01T07:09:35;20.00;79.00
60313;DHT22;46158;52.850;6.970;2022-08-01T07:12:02;19.90;79.00
60313;DHT22;46158;52.850;6.970;2022-08-01T07:14:28;19.90;78.90
60313;DHT22;46158;52.850;6.970;2022-08-01T07:16:54;19.90;79.60
60313;DHT22;46158;52.850;6.970;2022-08-01T07:19:19;19.90;79.60
60313;DHT22;46158;52.850;6.970;2022-08-01T07:21:45;20.00;79.00
60313;DHT22;46158;52.850;6.970;2022-08-01T07:24:13;19.90;78.90
60313;DHT22;46158;52.850;6.970;2022-08-01T07:26:40;19.90;78.90
60313;DHT22;46158;52.850;6.970;2022-08-01T07:29:05;20.00;79.00
60313;DHT22;46158;52.850;6.970;2022-08-01T07:31:31;20.00;78.90
60313;DHT22;46158;52.850;6.970;2022-08-01T07:33:56;20.00;78.90
60313;DHT22;46158;52.850;6.970;2022-08-01T07:36:22;20.00;79.00
60313;DHT22;46158;52.850;6.970;2022-08-01T07:38:48;20.00;79.00
60313;DHT22;46158;52.850;6.970;2022-08-01T07:41:14;20.00;78.90
60313;DHT22;46158;52.850;6.970;2022-08-01T07:43:40;20.00;78.90
60313;DHT22;46158;52.850;6.970;2022-08-01T07:46:06;19.90;78.90
60313;DHT22;46158;52.850;6.970;2022-08-01T07:48:32;20.00;78.90
60313;DHT22;46158;52.850;6.970;2022-08-01T07:50:57;20.00;78.90
60313;DHT22;46158;52.850;6.970;2022-08-01T07:53:23;20.00;78.80
60313;DHT22;46158;52.850;6.970;2022-08-01T07:55:49;20.00;79.50
60313;DHT22;46158;52.850;6.970;2022-08-01T07:58:16;20.00;78.80
60313;DHT22;46158;52.850;6.970;2022-08-01T08:00:42;19.90;78.80
60313;DHT22;46158;52.850;6.970;2022-08-01T08:03:07;20.00;78.90
60313;DHT22;46158;52.850;6.970;2022-08-01T08:05:33;20.00;78.80
60313;DHT22;46158;52.850;6.970;2022-08-01T08:08:05;20.00;78.90
60313;DHT22;46158;52.850;6.970;2022-08-01T08:10:31;20.00;78.90
60313;DHT22;46158;52.850;6.970;2022-08-01T08:12:57;20.00;79.00
60313;DHT22;46158;52.850;6.970;2022-08-01T08:15:22;19.90;78.90
60313;DHT22;46158;52.850;6.970;2022-08-01T08:17:48;20.00;78.90
60313;DHT22;46158;52.850;6.970;2022-08-01T08:20:14;19.90;78.80
60313;DHT22;46158;52.850;6.970;2022-08-01T08:22:40;20.00;78.90
60313;DHT22;46158;52.850;6.970;2022-08-01T08:25:06;19.90;78.90
60313;DHT22;46158;52.850;6.970;2022-08-01T08:27:32;20.00;78.80
60313;DHT22;46158;52.850;6.970;2022-08-01T08:29:58;19.90;78.80
60313;DHT22;46158;52.850;6.970;2022-08-01T08:32:23;20.00;78.90
60313;DHT22;46158;52.850;6.970;2022-08-01T08:34:49;20.00;78.90
60313;DHT22;46158;52.850;6.970;2022-08-01T08:37:15;20.00;78.90
60313;DHT22;46158;52.850;6.970;2022-08-01T08:39:44;20.00;78.90
60313;DHT22;46158;52.850;6.970;2022-08-01T08:42:11;20.00;79.00
60313;DHT22;46158;52.850;6.970;2022-08-01T08:44:37;20.00;78.90
60313;DHT22;46158;52.850;6.970;2022-08-01T08:47:05;20.00;78.90
60313;DHT22;46158;52.850;6.970;2022-08-01T08:49:33;20.00;78.90
60313;DHT22;46158;52.850;6.970;2022-08-01T08:52:00;19.90;78.80
60313;DHT22;46158;52.850;6.970;2022-08-01T08:54:27;20.00;79.00
60313;DHT22;46158;52.850;6.970;2022-08-01T08:56:54;20.00;78.80
60313;DHT22;46158;52.850;6.970;2022-08-01T08:59:21;20.00;79.50
60313;DHT22;46158;52.850;6.970;2022-08-01T09:01:47;20.00;78.80
60313;DHT22;46158;52.850;6.970;2022-08-01T09:04:13;20.00;78.90
60313;DHT22;46158;52.850;6.970;2022-08-01T09:06:39;20.00;78.80
60313;DHT22;46158;52.850;6.970;2022-08-01T09:09:06;20.00;78.80
60313;DHT22;46158;52.850;6.970;2022-08-01T09:11:32;20.00;78.80
60313;DHT22;46158;52.850;6.970;2022-08-01T09:14:05;20.00;78.80
60313;DHT22;46158;52.850;6.970;2022-08-01T09:16:32;20.00;78.80
60313;DHT22;46158;52.850;6.970;2022-08-01T09:19:20;20.00;78.80
60313;DHT22;46158;52.850;6.970;2022-08-01T09:22:00;20.00;78.70
60313;DHT22;46158;52.850;6.970;2022-08-01T09:24:28;20.00;78.70
60313;DHT22;46158;52.850;6.970;2022-08-01T09:26:56;20.00;78.80
60313;DHT22;46158;52.850;6.970;2022-08-01T09:29:24;20.00;78.70
60313;DHT22;46158;52.850;6.970;2022-08-01T09:31:50;20.00;78.70
60313;DHT22;46158;52.850;6.970;2022-08-01T09:34:25;20.00;78.70
60313;DHT22;46158;52.850;6.970;2022-08-01T09:36:56;20.00;78.70
60313;DHT22;46158;52.850;6.970;2022-08-01T09:39:33;20.00;78.70
60313;DHT22;46158;52.850;6.970;2022-08-01T09:42:22;20.00;78.70
60313;DHT22;46158;52.850;6.970;2022-08-01T09:44:49;20.00;78.70
60313;DHT22;46158;52.850;6.970;2022-08-01T09:47:15;20.00;78.70
60313;DHT22;46158;52.850;6.970;2022-08-01T09:49:43;20.00;78.70
60313;DHT22;46158;52.850;6.970;2022-08-01T09:52:19;20.00;78.60
60313;DHT22;46158;52.850;6.970;2022-08-01T09:54:54;20.10;78.70
60313;DHT22;46158;52.850;6.970;2022-08-01T09:57:20;20.00;78.60
60313;DHT22;46158;52.850;6.970;2022-08-01T09:59:48;20.00;78.60
60313;DHT22;46158;52.850;6.970;2022-08-01T10:02:28;20.10;78.70
60313;DHT22;46158;52.850;6.970;2022-08-01T10:04:54;20.10;78.60
60313;DHT22;46158;52.850;6.970;2022-08-01T10:07:20;20.00;78.60
60313;DHT22;46158;52.850;6.970;2022-08-01T10:09:46;20.00;78.60
60313;DHT22;46158;52.850;6.970;2022-08-01T10:12:15;20.00;78.60
60313;DHT22;46158;52.850;6.970;2022-08-01T10:14:42;20.00;78.60
60313;DHT22;46158;52.850;6.970;2022-08-01T10:17:11;20.10;78.70
60313;DHT22;46158;52.850;6.970;2022-08-01T10:19:40;20.10;78.60
60313;DHT22;46158;52.850;6.970;2022-08-01T10:22:09;20.10;78.60
60313;DHT22;46158;52.850;6.970;2022-08-01T10:24:37;20.10;78.60
60313;DHT22;46158;52.850;6.970;2022-08-01T10:27:09;20.10;78.60
60313;DHT22;46158;52.850;6.970;2022-08-01T10:29:51;20.10;78.60
60313;DHT22;46158;52.850;6.970;2022-08-01T10:32:20;20.10;78.60
60313;DHT22;46158;52.850;6.970;2022-08-01T10:34:47;20.10;78.60
60313;DHT22;46158;52.850;6.970;2022-08-01T10:37:14;20.10;78.60
60313;DHT22;46158;52.850;6.970;2022-08-01T10:39:40;20.10;78.50
60313;DHT22;46158;52.850;6.970;2022-08-01T10:42:06;20.10;78.50
60313;DHT22;46158;52.850;6.970;2022-08-01T10:44:36;20.10;78.50
60313;DHT22;46158;52.850;6.970;2022-08-01T10:47:12;20.10;78.50
60313;DHT22;46158;52.850;6.970;2022-08-01T10:49:47;20.10;78.40
60313;DHT22;46158;52.850;6.970;2022-08-01T10:52:18;20.10;78.50
60313;DHT22;46158;52.850;6.970;2022-08-01T10:54:44;20.10;78.50
60313;DHT22;46158;52.850;6.970;2022-08-01T10:57:10;20.10;78.50
60313;DHT22;46158;52.850;6.970;2022-08-01T10:59:48;20.10;78.40
60313;DHT22;46158;52.850;6.970;2022-08-01T11:02:29;20.10;78.40
60313;DHT22;46158;52.850;6.970;2022-08-01T11:05:01;20.10;78.40
60313;DHT22;46158;52.850;6.970;2022-08-01T11:07:48;20.10;78.40
60313;DHT22;46158;52.850;6.970;2022-08-01T11:10:23;20.10;78.30
60313;DHT22;46158;52.850;6.970;2022-08-01T11:12:49;20.10;79.00
60313;DHT22;46158;52.850;6.970;2022-08-01T11:15:16;20.10;78.40
60313;DHT22;46158;52.850;6.970;2022-08-01T11:17:49;20.10;78.30
60313;DHT22;46158;52.850;6.970;2022-08-01T11:20:22;20.20;78.40
60313;DHT22;46158;52.850;6.970;2022-08-01T11:30:45;20.10;78.30
60313;DHT22;46158;52.850;6.970;2022-08-01T11:33:13;20.20;78.30
60313;DHT22;46158;52.850;6.970;2022-08-01T11:41:34;20.20;78.20
60313;DHT22;46158;52.850;6.970;2022-08-01T11:44:11;20.20;78.20
60313;DHT22;46158;52.850;6.970;2022-08-01T11:46:58;20.20;78.20
60313;DHT22;46158;52.850;6.970;2022-08-01T11:51:59;20.20;78.20
60313;DHT22;46158;52.850;6.970;2022-08-01T11:54:29;20.20;78.10
60313;DHT22;46158;52.850;6.970;2022-08-01T11:57:00;20.20;78.20
60313;DHT22;46158;52.850;6.970;2022-08-01T11:59:26;20.20;78.10
60313;DHT22;46158;52.850;6.970;2022-08-01T12:01:52;20.20;78.10
60313;DHT22;46158;52.850;6.970;2022-08-01T12:04:18;20.20;78.10
60313;DHT22;46158;52.850;6.970;2022-08-01T12:06:44;20.30;78.10
60313;DHT22;46158;52.850;6.970;2022-08-01T12:11:42;20.30;78.00
60313;DHT22;46158;52.850;6.970;2022-08-01T12:14:08;20.30;78.00
60313;DHT22;46158;52.850;6.970;2022-08-01T12:16:34;20.30;78.00
60313;DHT22;46158;52.850;6.970;2022-08-01T12:18:59;20.30;78.00
60313;DHT22;46158;52.850;6.970;2022-08-01T12:21:25;20.30;78.00
60313;DHT22;46158;52.850;6.970;2022-08-01T12:24:01;20.30;77.90
60313;DHT22;46158;52.850;6.970;2022-08-01T12:26:41;20.30;77.90
60313;DHT22;46158;52.850;6.970;2022-08-01T12:29:07;20.30;77.90
60313;DHT22;46158;52.850;6.970;2022-08-01T12:31:34;20.30;77.90
60313;DHT22;46158;52.850;6.970;2022-08-01T12:34:26;20.30;77.90
60313;DHT22;46158;52.850;6.970;2022-08-01T12:36:55;20.30;77.80
60313;DHT22;46158;52.850;6.970;2022-08-01T12:39:21;20.30;77.80
60313;DHT22;46158;52.850;6.970;2022-08-01T12:41:47;20.30;77.80
60313;DHT22;46158;52.850;6.970;2022-08-01T12:44:13;20.30;77.70
60313;DHT22;46158;52.850;6.970;2022-08-01T12:46:40;20.30;77.70
60313;DHT22;46158;52.850;6.970;2022-08-01T12:49:07;20.30;77.70
60313;DHT22;46158;52.850;6.970;2022-08-01T12:51:32;20.30;77.70
60313;DHT22;46158;52.850;6.970;2022-08-01T12:53:59;20.30;77.60
60313;DHT22;46158;52.850;6.970;2022-08-01T12:56:32;20.30;77.60
60313;DHT22;46158;52.850;6.970;2022-08-01T12:58:58;20.40;77.60
60313;DHT22;46158;52.850;6.970;2022-08-01T13:01:28;20.30;77.60
60313;DHT22;46158;52.850;6.970;2022-08-01T13:04:01;20.40;77.60
60313;DHT22;46158;52.850;6.970;2022-08-01T13:06:29;20.30;77.60
60313;DHT22;46158;52.850;6.970;2022-08-01T13:09:05;20.30;77.60
60313;DHT22;46158;52.850;6.970;2022-08-01T13:11:31;20.40;77.60
60313;DHT22;46158;52.850;6.970;2022-08-01T13:13:57;20.30;77.50
60313;DHT22;46158;52.850;6.970;2022-08-01T13:16:24;20.40;77.50
60313;DHT22;46158;52.850;6.970;2022-08-01T13:18:52;20.40;77.50
60313;DHT22;46158;52.850;6.970;2022-08-01T13:21:20;20.40;77.40
60313;DHT22;46158;52.850;6.970;2022-08-01T13:24:05;20.40;77.50
60313;DHT22;46158;52.850;6.970;2022-08-01T13:29:22;20.40;77.40
60313;DHT22;46158;52.850;6.970;2022-08-01T13:31:53;20.40;77.40
60313;DHT22;46158;52.850;6.970;2022-08-01T13:34:29;20.40;77.40
60313;DHT22;46158;52.850;6.970;2022-08-01T13:36:55;20.40;77.40
60313;DHT22;46158;52.850;6.970;2022-08-01T13:39:21;20.40;77.30
60313;DHT22;46158;52.850;6.970;2022-08-01T13:42:05;20.40;77.30
60313;DHT22;46158;52.850;6.970;2022-08-01T13:44:31;20.40;77.30
60313;DHT22;46158;52.850;6.970;2022-08-01T13:46:57;20.40;77.30
60313;DHT22;46158;52.850;6.970;2022-08-01T13:49:22;20.40;77.30
60313;DHT22;46158;52.850;6.970;2022-08-01T13:51:48;20.40;77.20
60313;DHT22;46158;52.850;6.970;2022-08-01T13:54:16;20.50;77.30
60313;DHT22;46158;52.850;6.970;2022-08-01T13:56:42;20.40;77.20
60313;DHT22;46158;52.850;6.970;2022-08-01T13:59:08;20.40;77.20
60313;DHT22;46158;52.850;6.970;2022-08-01T14:01:34;20.40;77.20
60313;DHT22;46158;52.850;6.970;2022-08-01T14:04:00;20.40;77.10
60313;DHT22;46158;52.850;6.970;2022-08-01T14:06:26;20.50;77.20
60313;DHT22;46158;52.850;6.970;2022-08-01T14:08:52;20.50;77.20
60313;DHT22;46158;52.850;6.970;2022-08-01T14:11:17;20.50;77.10
60313;DHT22;46158;52.850;6.970;2022-08-01T14:13:43;20.50;77.10
60313;DHT22;46158;52.850;6.970;2022-08-01T14:16:09;20.50;77.10
60313;DHT22;46158;52.850;6.970;2022-08-01T14:18:35;20.50;77.10
60313;DHT22;46158;52.850;6.970;2022-08-01T14:21:00;20.50;77.10
60313;DHT22;46158;52.850;6.970;2022-08-01T14:23:26;20.50;77.10
60313;DHT22;46158;52.850;6.970;2022-08-01T14:25:52;20.50;77.10
60313;DHT22;46158;52.850;6.970;2022-08-01T14:28:18;20.50;77.00
60313;DHT22;46158;52.850;6.970;2022-08-01T14:30:44;20.50;77.00
60313;DHT22;46158;52.850;6.970;2022-08-01T14:33:11;20.50;77.00
60313;DHT22;46158;52.850;6.970;2022-08-01T14:35:37;20.50;77.00
60313;DHT22;46158;52.850;6.970;2022-08-01T14:38:03;20.50;77.00
60313;DHT22;46158;52.850;6.970;2022-08-01T14:40:29;20.50;77.00
60313;DHT22;46158;52.850;6.970;2022-08-01T14:42:54;20.50;77.00
60313;DHT22;46158;52.850;6.970;2022-08-01T14:45:20;20.50;76.90
60313;DHT22;46158;52.850;6.970;2022-08-01T14:47:46;20.50;76.90
60313;DHT22;46158;52.850;6.970;2022-08-01T14:50:13;20.50;76.90
60313;DHT22;46158;52.850;6.970;2022-08-01T14:52:40;20.50;76.90
60313;DHT22;46158;52.850;6.970;2022-08-01T14:55:07;20.50;76.90
60313;DHT22;46158;52.850;6.970;2022-08-01T14:57:34;20.50;76.90
60313;DHT22;46158;52.850;6.970;2022-08-01T15:00:00;20.50;76.90
60313;DHT22;46158;52.850;6.970;2022-08-01T15:02:26;20.50;76.80
60313;DHT22;46158;52.850;6.970;2022-08-01T15:04:51;20.50;76.80
60313;DHT22;46158;52.850;6.970;2022-08-01T15:07:18;20.50;76.80
60313;DHT22;46158;52.850;6.970;2022-08-01T15:09:45;20.50;76.80
60313;DHT22;46158;52.850;6.970;2022-08-01T15:12:11;20.50;76.70
60313;DHT22;46158;52.850;6.970;2022-08-01T15:14:37;20.50;76.70
60313;DHT22;46158;52.850;6.970;2022-08-01T15:17:22;20.50;76.70
60313;DHT22;46158;52.850;6.970;2022-08-01T15:19:51;20.50;76.70
60313;DHT22;46158;52.850;6.970;2022-08-01T15:22:17;20.50;76.70
60313;DHT22;46158;52.850;6.970;2022-08-01T15:24:43;20.50;76.70
60313;DHT22;46158;52.850;6.970;2022-08-01T15:27:09;20.50;76.70
60313;DHT22;46158;52.850;6.970;2022-08-01T15:29:36;20.60;76.70
60313;DHT22;46158;52.850;6.970;2022-08-01T15:32:03;20.50;77.10
60313;DHT22;46158;52.850;6.970;2022-08-01T15:34:30;20.50;76.60
60313;DHT22;46158;52.850;6.970;2022-08-01T15:36:56;20.50;76.60
60313;DHT22;46158;52.850;6.970;2022-08-01T15:39:22;20.60;76.70
60313;DHT22;46158;52.850;6.970;2022-08-01T15:41:47;20.50;76.60
60313;DHT22;46158;52.850;6.970;2022-08-01T15:44:14;20.50;76.60
60313;DHT22;46158;52.850;6.970;2022-08-01T15:46:39;20.60;76.60
60313;DHT22;46158;52.850;6.970;2022-08-01T15:49:05;20.60;76.70
60313;DHT22;46158;52.850;6.970;2022-08-01T15:51:33;20.50;76.60
60313;DHT22;46158;52.850;6.970;2022-08-01T15:53:59;20.60;76.70
60313;DHT22;46158;52.850;6.970;2022-08-01T15:56:29;20.60;76.60
60313;DHT22;46158;52.850;6.970;2022-08-01T15:58:55;20.60;76.60
60313;DHT22;46158;52.850;6.970;2022-08-01T16:01:21;20.60;76.50
60313;DHT22;46158;52.850;6.970;2022-08-01T16:03:47;20.60;76.50
60313;DHT22;46158;52.850;6.970;2022-08-01T16:06:12;20.60;76.50